Terminal Aerodrome Forecast
Issued by NWS Sterling, VA

Current Version | Previous Version | Graphics & Text | Print | Product List | Glossary On
Versions: 1 2 3 4 5 6 7 8 9 10 11 12 13 14 15 16 17 18 19 20 21
000
FTUS41 KLWX 220800 AAA
TAFDCA
TAF AMD
KDCA 220859Z 2209/2306 19008KT P6SM BKN150 BKN250 WS020/19035KT
     FM221700 23006KT P6SM -SHRA SCT035 OVC070
     FM221900 25010KT P6SM -SHRA SCT035 OVC050CB
     FM222200 24011G18KT 6SM BR SCT035 OVC050
     FM230200 29015G25KT P6SM BKN150=

USA.gov is the U.S. government's official web portal to all federal, state and local government web resources and services.